Time;durP1;ratioP1;P1;durP2;ratioP2;P2;SDS_P1;SDS_P2;PMS_P1;PMS_P2;Temp;Humidity;BMP_temperature;BMP_pressure;BME280_temperature;BME280_humidity;BME280_pressure;Samples;Min_cycle;Max_cycle;Signal;HPM_P1;HPM_P2
2023/10/26 00:00:46;;;;;;;0.00;0.00;;;;;;;12.52;96.44;93842.56;4272972;33;20195;-63
2023/10/26 00:03:12;;;;;;;0.20;0.20;;;;;;;12.59;95.74;93836.66;4297584;33;20198;-64
2023/10/26 00:05:38;;;;;;;0.10;0.10;;;;;;;12.69;96.03;93841.47;4281798;33;20301;-64
2023/10/26 00:08:05;;;;;;;0.03;0.03;;;;;;;12.72;96.46;93841.56;4311064;33;20257;-64
2023/10/26 00:10:32;;;;;;;0.00;0.00;;;;;;;12.81;95.65;93841.41;4314293;33;20269;-63
2023/10/26 00:12:59;;;;;;;0.00;0.00;;;;;;;12.85;95.56;93836.16;4296426;33;20190;-63
2023/10/26 00:15:25;;;;;;;2.40;0.43;;;;;;;12.72;95.87;93836.22;4290583;33;20201;-64
2023/10/26 00:17:52;;;;;;;0.00;0.00;;;;;;;12.50;95.73;93844.78;4290668;33;20214;-63
2023/10/26 00:20:18;;;;;;;6.03;0.50;;;;;;;12.63;95.27;93840.19;4281005;33;20245;-64
2023/10/26 00:22:45;;;;;;;0.20;0.20;;;;;;;12.47;95.70;93834.84;4321955;33;20225;-64
2023/10/26 00:25:10;;;;;;;0.20;0.20;;;;;;;12.55;95.02;93838.44;4313033;33;20220;-64
2023/10/26 00:27:40;;;;;;;0.00;0.00;;;;;;;12.58;94.75;93827.13;4293162;33;20287;-64
2023/10/26 00:30:10;;;;;;;0.10;0.10;;;;;;;12.39;94.12;93817.16;4302700;33;20436;-64
2023/10/26 00:32:37;;;;;;;0.00;0.00;;;;;;;12.44;93.30;93808.94;4286739;33;20205;-64
2023/10/26 00:35:04;;;;;;;0.00;0.00;;;;;;;12.43;92.50;93803.97;4301638;33;20197;-64
2023/10/26 00:37:30;;;;;;;0.00;0.00;;;;;;;12.38;91.74;93802.31;4263959;33;20229;-64
2023/10/26 00:39:59;;;;;;;0.23;0.23;;;;;;;12.39;92.00;93809.97;4291770;33;20262;-64
2023/10/26 00:42:26;;;;;;;0.00;0.00;;;;;;;12.41;90.99;93822.13;4286772;33;20190;-64
2023/10/26 00:44:53;;;;;;;0.00;0.00;;;;;;;12.32;89.24;93817.75;4302233;33;20221;-64
2023/10/26 00:47:20;;;;;;;0.00;0.00;;;;;;;12.32;88.29;93833.69;4309736;33;20209;-63
2023/10/26 00:49:47;;;;;;;0.00;0.00;;;;;;;12.34;87.84;93842.13;4307629;33;20205;-64
2023/10/26 00:52:13;;;;;;;0.17;0.17;;;;;;;12.37;87.09;93845.97;4269414;33;20194;-64
2023/10/26 00:55:03;;;;;;;0.00;0.00;;;;;;;12.30;87.10;93851.88;4292331;33;20262;-64
2023/10/26 00:57:36;;;;;;;0.00;0.00;;;;;;;12.34;86.52;93847.44;4287614;33;20245;-64
2023/10/26 01:00:03;;;;;;;0.20;0.20;;;;;;;12.37;86.89;93838.78;4277377;33;20198;-63
2023/10/26 01:02:30;;;;;;;0.00;0.00;;;;;;;12.31;85.45;93842.78;4291453;33;20238;-63
2023/10/26 01:04:57;;;;;;;0.00;0.00;;;;;;;12.52;85.61;93847.09;4324117;33;20200;-63
2023/10/26 01:07:22;;;;;;;0.00;0.00;;;;;;;12.55;84.97;93851.75;4302442;33;20244;-64
2023/10/26 01:09:52;;;;;;;0.00;0.00;;;;;;;12.49;84.91;93853.09;4305663;33;20194;-64
2023/10/26 01:12:21;;;;;;;0.10;0.10;;;;;;;12.44;84.64;93856.03;4303616;33;20209;-64
2023/10/26 01:14:47;;;;;;;0.00;0.00;;;;;;;12.51;84.74;93854.31;4302970;33;20299;-63
2023/10/26 01:17:13;;;;;;;0.07;0.07;;;;;;;12.53;83.64;93861.97;4279525;33;20268;-64
2023/10/26 01:19:42;;;;;;;0.00;0.00;;;;;;;12.53;83.34;93848.66;4282389;33;20191;-63
2023/10/26 01:22:09;;;;;;;0.10;0.10;;;;;;;12.54;83.52;93855.53;4283313;33;20216;-63
2023/10/26 01:24:37;;;;;;;0.10;0.10;;;;;;;12.48;84.20;93846.25;4269112;33;20232;-67
2023/10/26 01:27:05;;;;;;;0.00;0.00;;;;;;;12.44;83.69;93848.06;4324117;33;20233;-62
2023/10/26 01:29:32;;;;;;;0.20;0.20;;;;;;;12.45;83.83;93844.28;4313793;33;20194;-61
2023/10/26 01:31:58;;;;;;;0.30;0.17;;;;;;;12.44;83.16;93840.09;4291729;33;20206;-62
2023/10/26 01:34:24;;;;;;;0.03;0.03;;;;;;;12.42;83.74;93834.31;4292855;33;20196;-62
2023/10/26 01:36:50;;;;;;;0.00;0.00;;;;;;;12.45;83.12;93833.66;4297912;33;20194;-62
2023/10/26 01:39:20;;;;;;;0.20;0.20;;;;;;;12.44;83.84;93826.78;4320032;33;20209;-62
2023/10/26 01:41:47;;;;;;;0.10;0.10;;;;;;;12.35;83.94;93825.03;4312895;33;20230;-62
2023/10/26 01:44:13;;;;;;;0.30;0.30;;;;;;;12.17;84.36;93823.81;4303419;33;20196;-62
2023/10/26 01:46:39;;;;;;;0.30;0.30;;;;;;;12.19;84.54;93818.94;4289199;33;20268;-62
2023/10/26 01:49:06;;;;;;;0.00;0.00;;;;;;;12.28;84.57;93813.44;4284332;33;20190;-62
2023/10/26 01:51:32;;;;;;;0.00;0.00;;;;;;;12.15;84.41;93814.63;4308117;33;20276;-62
2023/10/26 01:53:59;;;;;;;0.00;0.00;;;;;;;12.01;85.25;93807.06;4306363;33;20185;-63
2023/10/26 01:56:26;;;;;;;0.43;0.30;;;;;;;12.11;84.79;93811.87;4298394;33;20213;-62
2023/10/26 01:58:52;;;;;;;0.10;0.10;;;;;;;12.03;84.50;93816.25;4268579;33;20215;-62
2023/10/26 02:01:20;;;;;;;0.00;0.00;;;;;;;12.11;84.71;93801.25;4266634;33;20309;-62
2023/10/26 02:03:46;;;;;;;0.03;0.03;;;;;;;12.04;84.53;93801.84;4271754;33;20198;-62
2023/10/26 02:06:14;;;;;;;0.10;0.10;;;;;;;12.06;84.72;93793.50;4299222;33;20221;-62
2023/10/26 02:08:43;;;;;;;0.00;0.00;;;;;;;11.95;84.32;93801.22;4276929;33;20205;-62
2023/10/26 02:11:09;;;;;;;0.00;0.00;;;;;;;11.93;84.85;93802.66;4306222;33;20297;-62
2023/10/26 02:13:36;;;;;;;0.00;0.00;;;;;;;12.10;84.85;93801.56;4302307;33;20196;-62
2023/10/26 02:16:02;;;;;;;0.00;0.00;;;;;;;12.02;85.49;93796.09;4286467;33;20194;-62
2023/10/26 02:18:31;;;;;;;0.00;0.00;;;;;;;12.10;84.21;93805.00;4312572;33;20257;-62
2023/10/26 02:21:00;;;;;;;0.10;0.10;;;;;;;12.19;84.10;93796.87;4282236;33;20209;-62
2023/10/26 02:23:26;;;;;;;0.00;0.00;;;;;;;12.14;83.76;93789.16;4285593;33;20211;-62
2023/10/26 02:25:53;;;;;;;0.00;0.00;;;;;;;12.03;84.30;93794.22;4329480;32;20189;-62
2023/10/26 02:28:19;;;;;;;0.10;0.10;;;;;;;12.20;84.37;93785.91;4294165;33;20236;-63
2023/10/26 02:30:49;;;;;;;0.00;0.00;;;;;;;12.18;84.57;93788.13;4327353;32;20182;-63
2023/10/26 02:33:16;;;;;;;0.10;0.10;;;;;;;12.08;84.29;93793.94;4292136;33;20235;-63
2023/10/26 02:35:42;;;;;;;0.03;0.03;;;;;;;11.90;84.36;93788.16;4326965;32;20221;-63
2023/10/26 02:38:08;;;;;;;0.00;0.00;;;;;;;12.04;84.11;93795.75;4293537;33;20266;-63
2023/10/26 02:40:36;;;;;;;0.10;0.10;;;;;;;12.03;83.98;93786.22;4310168;33;20258;-63
2023/10/26 02:43:03;;;;;;;0.00;0.00;;;;;;;11.96;84.12;93791.34;4295371;33;20240;-63
2023/10/26 02:45:31;;;;;;;0.00;0.00;;;;;;;11.94;84.44;93796.22;4296464;32;20396;-64
2023/10/26 02:47:59;;;;;;;0.00;0.00;;;;;;;11.87;83.64;93796.03;4302873;32;20203;-63
2023/10/26 02:50:27;;;;;;;0.13;0.13;;;;;;;11.71;83.85;93794.06;4298706;33;20186;-63
2023/10/26 02:52:55;;;;;;;0.00;0.00;;;;;;;11.83;83.95;93790.63;4320822;32;20216;-63
2023/10/26 02:55:22;;;;;;;0.07;0.07;;;;;;;11.98;83.48;93794.44;4309671;32;20293;-63
2023/10/26 02:57:48;;;;;;;0.20;0.10;;;;;;;11.97;83.54;93792.91;4326248;32;20249;-63
2023/10/26 03:00:16;;;;;;;0.00;0.00;;;;;;;11.96;82.47;93797.44;4293810;33;20265;-63
2023/10/26 03:02:43;;;;;;;0.10;0.10;;;;;;;11.99;82.78;93791.44;4305921;33;20222;-63
2023/10/26 03:05:10;;;;;;;0.10;0.10;;;;;;;11.86;83.12;93791.81;4283512;33;20342;-63
2023/10/26 03:07:36;;;;;;;0.00;0.00;;;;;;;12.04;82.97;93795.75;4283745;33;20216;-63
2023/10/26 03:10:05;;;;;;;0.00;0.00;;;;;;;12.14;82.69;93799.78;4289459;33;20186;-63
2023/10/26 03:12:32;;;;;;;0.00;0.00;;;;;;;12.08;82.30;93801.91;4313742;33;20235;-63
2023/10/26 03:14:59;;;;;;;0.67;0.20;;;;;;;12.10;82.43;93797.03;4294974;33;20260;-63
2023/10/26 03:17:27;;;;;;;0.10;0.10;;;;;;;11.95;82.80;93795.13;4316856;33;20232;-63
2023/10/26 03:19:54;;;;;;;0.00;0.00;;;;;;;12.04;82.89;93796.53;4281426;33;20214;-63
2023/10/26 03:22:21;;;;;;;0.00;0.00;;;;;;;12.08;82.54;93799.25;4276620;33;20197;-63
2023/10/26 03:24:49;;;;;;;0.30;0.10;;;;;;;12.15;83.42;93791.47;4304533;33;20206;-63
2023/10/26 03:27:17;;;;;;;0.43;0.10;;;;;;;12.24;83.26;93792.09;4299533;33;20213;-63
2023/10/26 03:29:42;;;;;;;0.00;0.00;;;;;;;12.17;82.96;93789.25;4272302;33;20212;-63
2023/10/26 03:32:08;;;;;;;0.00;0.00;;;;;;;12.07;82.93;93799.59;4294698;33;20195;-63
2023/10/26 03:34:35;;;;;;;0.00;0.00;;;;;;;12.18;82.76;93790.81;4284616;33;20195;-63
2023/10/26 03:37:00;;;;;;;0.00;0.00;;;;;;;12.25;82.98;93793.66;4302236;33;20246;-63
2023/10/26 03:39:29;;;;;;;0.00;0.00;;;;;;;12.14;82.99;93800.56;4302867;33;20190;-63
2023/10/26 03:41:56;;;;;;;0.10;0.10;;;;;;;12.14;82.86;93800.56;4276194;33;20220;-63
2023/10/26 03:44:22;;;;;;;0.23;0.23;;;;;;;12.07;83.53;93802.25;4302316;33;20190;-63
2023/10/26 03:46:47;;;;;;;0.27;0.27;;;;;;;12.19;82.76;93789.69;4274063;33;20217;-63
2023/10/26 03:49:13;;;;;;;0.10;0.10;;;;;;;12.18;83.07;93795.34;4257490;33;20194;-63
2023/10/26 03:51:38;;;;;;;0.10;0.10;;;;;;;12.20;83.16;93793.12;4295308;33;20181;-63
2023/10/26 03:54:05;;;;;;;0.20;0.20;;;;;;;12.06;82.51;93804.13;4268926;33;20290;-63
2023/10/26 03:56:33;;;;;;;0.30;0.30;;;;;;;12.05;82.44;93798.03;4304199;33;20354;-63
2023/10/26 03:58:59;;;;;;;0.03;0.03;;;;;;;11.83;84.22;93797.84;4289752;33;20232;-63
2023/10/26 04:01:25;;;;;;;0.07;0.07;;;;;;;11.81;83.97;93794.75;4287608;33;20216;-63
2023/10/26 04:03:52;;;;;;;0.00;0.00;;;;;;;11.71;83.16;93799.38;4285141;33;20178;-63
2023/10/26 04:06:17;;;;;;;0.20;0.20;;;;;;;11.95;83.22;93797.78;4276186;33;20183;-63
2023/10/26 04:08:43;;;;;;;0.20;0.20;;;;;;;11.86;83.12;93789.16;4288894;33;20173;-63
2023/10/26 04:11:19;;;;;;;0.10;0.10;;;;;;;11.94;82.88;93790.91;4315966;33;20196;-63
2023/10/26 04:13:46;;;;;;;0.00;0.00;;;;;;;11.95;83.08;93774.63;4285854;32;20209;-63
2023/10/26 04:16:14;;;;;;;0.03;0.03;;;;;;;11.83;83.67;93780.00;4298726;33;20182;-63
2023/10/26 04:18:41;;;;;;;0.00;0.00;;;;;;;11.94;82.00;93782.94;4314610;33;20186;-63
2023/10/26 04:21:07;;;;;;;0.00;0.00;;;;;;;11.97;82.50;93788.34;4284275;33;20190;-63
2023/10/26 04:23:34;;;;;;;0.03;0.03;;;;;;;11.96;82.78;93778.06;4300076;33;20204;-63
2023/10/26 04:25:59;;;;;;;0.00;0.00;;;;;;;12.01;82.74;93777.81;4284807;33;20182;-63
2023/10/26 04:28:24;;;;;;;0.00;0.00;;;;;;;12.10;82.11;93775.75;4302055;33;20257;-62
2023/10/26 04:30:53;;;;;;;0.00;0.00;;;;;;;12.14;81.42;93776.63;4297235;33;20244;-63
2023/10/26 04:33:20;;;;;;;0.00;0.00;;;;;;;12.10;81.54;93778.44;4274040;33;20229;-63
2023/10/26 04:35:48;;;;;;;0.00;0.00;;;;;;;12.08;81.87;93772.66;4286452;33;20190;-62
2023/10/26 04:38:13;;;;;;;0.17;0.17;;;;;;;11.98;81.61;93765.22;4287854;33;20212;-63
2023/10/26 04:40:43;;;;;;;0.40;0.37;;;;;;;12.03;82.44;93767.63;4307686;33;20285;-63
2023/10/26 04:43:09;;;;;;;0.00;0.00;;;;;;;12.11;81.13;93766.69;4318934;33;20177;-63
2023/10/26 04:45:37;;;;;;;0.10;0.10;;;;;;;11.95;82.72;93771.97;4314621;33;20220;-62
2023/10/26 04:48:03;;;;;;;0.03;0.03;;;;;;;11.97;81.75;93764.44;4311865;33;20297;-62
2023/10/26 04:50:32;;;;;;;0.07;0.07;;;;;;;12.04;82.70;93766.50;4293807;33;20198;-63
2023/10/26 04:53:02;;;;;;;0.03;0.03;;;;;;;12.16;82.31;93761.13;4304849;33;20190;-62
2023/10/26 04:55:33;;;;;;;0.10;0.10;;;;;;;12.09;81.39;93750.28;4284612;33;20202;-63
2023/10/26 04:58:00;;;;;;;0.30;0.30;;;;;;;12.15;81.08;93748.16;4305314;33;20233;-63
2023/10/26 05:00:30;;;;;;;0.33;0.23;;;;;;;12.03;81.29;93749.03;4302758;33;20182;-63
2023/10/26 05:02:57;;;;;;;0.00;0.00;;;;;;;12.04;81.62;93754.00;4306456;33;20186;-63
2023/10/26 05:05:26;;;;;;;0.70;0.10;;;;;;;12.16;81.06;93766.44;4269122;33;20186;-62
2023/10/26 05:07:52;;;;;;;0.10;0.10;;;;;;;12.14;81.30;93763.34;4299405;33;20178;-62
2023/10/26 05:10:22;;;;;;;0.27;0.27;;;;;;;12.02;81.86;93766.09;4272204;33;20201;-62
2023/10/26 05:12:48;;;;;;;1.07;0.20;;;;;;;12.03;81.63;93770.28;4292394;33;20185;-63
2023/10/26 05:15:15;;;;;;;0.00;0.00;;;;;;;12.15;81.11;93764.88;4291252;33;20202;-63
2023/10/26 05:17:40;;;;;;;0.33;0.33;;;;;;;12.10;81.46;93762.47;4315216;33;20265;-62
2023/10/26 05:20:13;;;;;;;0.13;0.13;;;;;;;12.07;81.88;93762.38;4297265;33;20198;-63
2023/10/26 05:22:41;;;;;;;0.10;0.10;;;;;;;12.12;81.50;93770.88;4301864;33;20216;-63
2023/10/26 05:25:11;;;;;;;0.20;0.20;;;;;;;12.13;81.54;93767.13;4303088;33;20196;-62
2023/10/26 05:27:38;;;;;;;0.03;0.03;;;;;;;12.02;81.74;93766.09;4280905;33;20203;-62
2023/10/26 05:30:06;;;;;;;0.63;0.47;;;;;;;12.09;82.35;93768.13;4275447;33;20198;-62
2023/10/26 05:32:35;;;;;;;0.00;0.00;;;;;;;11.92;82.61;93771.88;4293753;33;20293;-63
2023/10/26 05:35:20;;;;;;;0.10;0.10;;;;;;;12.06;82.35;93764.25;4298619;33;20229;-63
2023/10/26 05:37:48;;;;;;;0.20;0.20;;;;;;;12.18;82.56;93766.87;4313812;33;20186;-63
2023/10/26 05:40:15;;;;;;;0.20;0.20;;;;;;;12.14;82.94;93766.00;4276827;33;20222;-63
2023/10/26 05:42:40;;;;;;;0.27;0.27;;;;;;;12.06;82.77;93758.94;4277820;33;20194;-63
2023/10/26 05:45:07;;;;;;;0.20;0.20;;;;;;;12.28;82.35;93769.00;4301396;33;20216;-63
2023/10/26 05:47:32;;;;;;;0.20;0.20;;;;;;;12.16;82.50;93771.75;4303484;33;20186;-63
2023/10/26 05:49:58;;;;;;;0.43;0.37;;;;;;;12.06;83.91;93774.91;4301764;33;20204;-63
2023/10/26 05:52:26;;;;;;;0.30;0.30;;;;;;;12.18;83.62;93772.19;4306451;33;20181;-63
2023/10/26 05:54:52;;;;;;;0.30;0.30;;;;;;;12.17;83.74;93775.97;4310703;33;20205;-63
2023/10/26 05:57:29;;;;;;;1.20;1.17;;;;;;;12.20;83.85;93774.50;4287283;33;20204;-61
2023/10/26 05:59:55;;;;;;;8.80;0.43;;;;;;;14.34;100.00;93775.34;4288549;33;20201;-62
2023/10/26 06:02:22;;;;;;;1.17;0.43;;;;;;;14.35;100.00;93772.31;4298676;33;20327;-62
2023/10/26 06:04:52;;;;;;;0.37;0.37;;;;;;;14.50;95.11;93770.72;4295323;33;20221;-61
2023/10/26 06:07:19;;;;;;;2.93;0.70;;;;;;;14.95;89.02;93764.56;4308383;33;20209;-56
2023/10/26 06:09:46;;;;;;;1.50;0.60;;;;;;;15.44;88.58;93763.72;4314556;33;20190;-62
2023/10/26 06:12:12;;;;;;;0.47;0.47;;;;;;;15.90;91.26;93763.53;4299434;33;20249;-62
2023/10/26 06:14:52;;;;;;;4.03;0.93;;;;;;;16.14;92.52;93763.81;4312305;33;20246;-63
2023/10/26 06:17:20;;;;;;;0.30;0.30;;;;;;;16.34;90.44;93777.78;4297346;33;20174;-62
2023/10/26 06:19:47;;;;;;;0.73;0.40;;;;;;;16.26;83.52;93776.16;4307854;33;20186;-62
2023/10/26 06:22:13;;;;;;;9.33;0.73;;;;;;;16.37;81.39;93776.28;4307369;33;20186;-62
2023/10/26 06:24:41;;;;;;;0.20;0.20;;;;;;;16.50;81.49;93780.22;4268632;33;20271;-63
2023/10/26 06:27:08;;;;;;;0.00;0.00;;;;;;;16.19;81.65;93780.69;4294927;33;20262;-64
2023/10/26 06:29:34;;;;;;;0.20;0.20;;;;;;;14.42;82.48;93791.16;4307146;33;20201;-64
2023/10/26 06:32:00;;;;;;;0.47;0.37;;;;;;;13.96;84.54;93784.94;4305508;33;20189;-64
2023/10/26 06:34:26;;;;;;;2.10;0.50;;;;;;;13.48;87.31;93796.94;4296256;33;20194;-63
2023/10/26 06:36:52;;;;;;;0.13;0.13;;;;;;;12.82;90.43;93795.03;4285895;33;20250;-64
2023/10/26 06:39:18;;;;;;;1.33;0.43;;;;;;;12.49;91.73;93805.22;4312540;33;20193;-63
2023/10/26 06:41:44;;;;;;;0.30;0.30;;;;;;;12.51;92.75;93800.34;4307989;33;20185;-63
2023/10/26 06:44:11;;;;;;;0.60;0.60;;;;;;;12.12;94.18;93807.31;4293307;33;20278;-63
2023/10/26 06:46:38;;;;;;;0.20;0.20;;;;;;;12.03;94.60;93805.63;4279474;33;20296;-63
2023/10/26 06:49:08;;;;;;;0.77;0.40;;;;;;;11.81;95.75;93802.72;4279689;33;20193;-63
2023/10/26 06:51:34;;;;;;;0.50;0.43;;;;;;;11.82;95.82;93801.59;4292592;33;20186;-63
2023/10/26 06:54:01;;;;;;;0.00;0.00;;;;;;;11.77;96.82;93802.59;4302247;33;20194;-64
2023/10/26 06:56:29;;;;;;;0.30;0.30;;;;;;;11.69;97.71;93793.62;4267822;33;20193;-64
2023/10/26 06:58:54;;;;;;;0.40;0.40;;;;;;;11.55;98.28;93801.22;4274113;33;20201;-64
2023/10/26 07:01:21;;;;;;;0.07;0.07;;;;;;;11.62;99.33;93805.97;4291003;33;20198;-63
2023/10/26 07:03:50;;;;;;;2.23;0.50;;;;;;;11.53;99.36;93792.81;4279960;33;20203;-64
2023/10/26 07:06:18;;;;;;;0.10;0.10;;;;;;;11.40;100.00;93783.34;4289968;33;20182;-64
2023/10/26 07:08:46;;;;;;;0.20;0.20;;;;;;;11.37;100.00;93791.97;4313912;33;20174;-64
2023/10/26 07:11:12;;;;;;;0.30;0.30;;;;;;;11.64;100.00;93785.91;4307142;33;20196;-63
2023/10/26 07:13:41;;;;;;;0.23;0.20;;;;;;;11.53;100.00;93781.41;4302879;33;20194;-63
2023/10/26 07:16:10;;;;;;;2.50;0.47;;;;;;;11.64;100.00;93782.47;4297151;33;20208;-64
2023/10/26 07:18:36;;;;;;;1.43;0.20;;;;;;;11.66;100.00;93778.38;4283543;33;20203;-64
2023/10/26 07:21:05;;;;;;;1.30;1.20;;;;;;;11.56;100.00;93772.78;4289834;33;20194;-64
2023/10/26 07:23:33;;;;;;;0.70;0.70;;;;;;;11.63;100.00;93781.72;4287902;33;20209;-65
2023/10/26 07:26:00;;;;;;;1.60;0.77;;;;;;;11.63;100.00;93787.03;4274455;33;20246;-64
2023/10/26 07:28:30;;;;;;;0.73;0.73;;;;;;;11.73;100.00;93791.06;4284296;33;20252;-65
2023/10/26 07:30:56;;;;;;;0.77;0.70;;;;;;;11.64;100.00;93785.91;4290549;33;20201;-64
2023/10/26 07:33:24;;;;;;;0.97;0.83;;;;;;;11.66;100.00;93788.97;4301753;33;20194;-64
2023/10/26 07:35:53;;;;;;;0.57;0.53;;;;;;;11.77;100.00;93786.66;4299318;33;20262;-64
2023/10/26 07:38:26;;;;;;;0.93;0.70;;;;;;;11.97;100.00;93784.91;4291756;33;20198;-64
2023/10/26 07:40:53;;;;;;;6.43;0.73;;;;;;;11.75;100.00;93783.53;4300832;33;20256;-64
2023/10/26 07:43:21;;;;;;;2.27;0.77;;;;;;;11.88;100.00;93773.66;4312050;33;20198;-64
2023/10/26 07:46:09;;;;;;;0.20;0.20;;;;;;;12.07;100.00;93775.66;4279357;33;20210;-64
2023/10/26 07:48:40;;;;;;;5.83;0.40;;;;;;;11.91;100.00;93775.63;4294753;33;20205;-64
2023/10/26 07:51:07;;;;;;;0.30;0.30;;;;;;;11.92;100.00;93762.00;4285773;33;20191;-64
2023/10/26 07:53:33;;;;;;;0.00;0.00;;;;;;;12.16;99.87;93774.41;4300107;33;20182;-64
2023/10/26 07:56:00;;;;;;;0.33;0.30;;;;;;;12.11;99.91;93769.34;4312425;33;20210;-64
2023/10/26 07:58:30;;;;;;;1.50;0.20;;;;;;;12.30;99.32;93766.00;4277679;33;20207;-64
2023/10/26 08:00:56;;;;;;;3.30;0.30;;;;;;;12.42;98.79;93770.50;4268830;33;20177;-64
2023/10/26 08:03:24;;;;;;;0.50;0.50;;;;;;;12.53;99.01;93759.00;4274807;33;20186;-64
2023/10/26 08:06:00;;;;;;;0.30;0.30;;;;;;;12.35;99.48;93771.84;4302359;33;20200;-64
2023/10/26 08:08:27;;;;;;;0.40;0.40;;;;;;;12.51;99.81;93763.09;4307187;33;20193;-64
2023/10/26 08:10:52;;;;;;;0.40;0.40;;;;;;;12.38;98.82;93773.84;4296330;33;20205;-64
2023/10/26 08:13:18;;;;;;;0.00;0.00;;;;;;;12.48;98.50;93777.09;4284669;33;20273;-63
2023/10/26 08:15:45;;;;;;;1.87;0.63;;;;;;;12.54;98.72;93783.72;4296797;32;20204;-64
2023/10/26 08:18:12;;;;;;;0.00;0.00;;;;;;;12.66;98.93;93788.97;4299068;33;20208;-63
2023/10/26 08:20:38;;;;;;;0.27;0.27;;;;;;;12.50;98.45;93793.47;4289444;33;20272;-64
2023/10/26 08:23:05;;;;;;;0.20;0.20;;;;;;;12.55;98.66;93793.22;4290900;33;20190;-64
2023/10/26 08:25:35;;;;;;;0.10;0.10;;;;;;;12.57;99.03;93796.31;4292690;33;20202;-64
2023/10/26 08:28:02;;;;;;;0.40;0.20;;;;;;;12.48;98.92;93799.13;4298979;33;20225;-64
2023/10/26 08:30:30;;;;;;;0.10;0.10;;;;;;;12.50;98.01;93793.47;4289706;33;20216;-64
2023/10/26 08:32:59;;;;;;;0.07;0.07;;;;;;;12.54;98.33;93791.69;4296376;32;20182;-64
2023/10/26 08:35:27;;;;;;;0.23;0.23;;;;;;;12.53;98.85;93792.81;4278351;33;20183;-63
2023/10/26 08:37:53;;;;;;;0.27;0.27;;;;;;;12.83;96.95;93799.25;4306872;33;20193;-63
2023/10/26 08:40:20;;;;;;;0.40;0.30;;;;;;;12.93;96.51;93798.72;4288536;33;20190;-63
2023/10/26 08:42:49;;;;;;;0.77;0.53;;;;;;;13.08;96.21;93807.81;4301826;33;20201;-63
2023/10/26 08:45:23;;;;;;;0.30;0.30;;;;;;;13.01;95.88;93804.97;4277239;33;20186;-63
2023/10/26 08:47:50;;;;;;;0.03;0.03;;;;;;;12.92;96.81;93813.13;4271031;33;20334;-63
2023/10/26 08:50:24;;;;;;;0.40;0.40;;;;;;;12.90;96.72;93822.56;4321032;33;20186;-63
2023/10/26 08:52:51;;;;;;;0.10;0.10;;;;;;;12.95;96.87;93812.44;4321046;32;20200;-63
2023/10/26 08:55:25;;;;;;;0.00;0.00;;;;;;;12.89;97.40;93813.81;4301882;33;20213;-63
2023/10/26 08:57:54;;;;;;;0.10;0.03;;;;;;;12.89;97.28;93813.03;4304126;33;20196;-63
2023/10/26 09:00:23;;;;;;;0.20;0.20;;;;;;;12.81;97.46;93796.16;4255946;33;20182;-65
2023/10/26 09:02:52;;;;;;;0.43;0.43;;;;;;;12.81;97.32;93790.06;4293207;33;20224;-64
2023/10/26 09:05:18;;;;;;;0.07;0.07;;;;;;;12.77;98.22;93797.97;4297195;33;20209;-64
2023/10/26 09:07:45;;;;;;;0.00;0.00;;;;;;;12.63;98.19;93789.63;4310102;33;20185;-64
2023/10/26 09:10:12;;;;;;;0.20;0.20;;;;;;;12.68;98.38;93797.34;4311842;33;20185;-64
2023/10/26 09:12:39;;;;;;;0.60;0.53;;;;;;;12.66;98.12;93796.94;4315474;33;20305;-64
2023/10/26 09:15:06;;;;;;;0.40;0.23;;;;;;;12.57;98.80;93791.00;4294343;33;20221;-64
2023/10/26 09:17:34;;;;;;;0.30;0.30;;;;;;;12.67;98.61;93803.81;4315711;33;20256;-64
2023/10/26 09:20:22;;;;;;;0.27;0.27;;;;;;;12.64;99.93;93799.16;4315922;33;20206;-65
2023/10/26 09:22:48;;;;;;;0.00;0.00;;;;;;;12.65;100.00;93798.81;4307587;33;20181;-64
2023/10/26 09:25:15;;;;;;;0.00;0.00;;;;;;;12.76;100.00;93788.44;4281362;33;20209;-65
2023/10/26 09:27:43;;;;;;;0.10;0.07;;;;;;;12.89;100.00;93789.87;4271399;33;20261;-64
2023/10/26 09:30:28;;;;;;;0.63;0.63;;;;;;;12.77;100.00;93797.97;4275009;33;20227;-65
2023/10/26 09:32:58;;;;;;;0.00;0.00;;;;;;;12.79;100.00;93798.38;4269015;33;20217;-64
2023/10/26 09:35:28;;;;;;;0.97;0.37;;;;;;;12.60;100.00;93806.28;4279985;33;20186;-65
2023/10/26 09:37:53;;;;;;;2.90;2.73;;;;;;;12.80;100.00;93818.56;4285730;33;20225;-64
2023/10/26 09:40:21;;;;;;;2.30;0.97;;;;;;;12.60;100.00;93806.28;4283208;33;20194;-64
2023/10/26 09:42:48;;;;;;;0.07;0.07;;;;;;;12.69;100.00;93814.84;4288822;33;20198;-64
2023/10/26 09:45:21;;;;;;;0.40;0.40;;;;;;;12.78;100.00;93812.81;4276971;33;20190;-64
2023/10/26 09:47:48;;;;;;;0.40;0.37;;;;;;;12.85;100.00;93822.84;4311413;33;20190;-64
2023/10/26 09:50:14;;;;;;;0.00;0.00;;;;;;;12.75;100.00;93813.50;4294975;33;20182;-64
2023/10/26 09:52:42;;;;;;;0.40;0.27;;;;;;;12.74;100.00;93811.94;4305367;33;20190;-65
2023/10/26 09:55:25;;;;;;;0.00;0.00;;;;;;;12.54;100.00;93799.66;4308052;33;20281;-64
2023/10/26 09:57:56;;;;;;;0.10;0.10;;;;;;;12.52;100.00;93809.88;4297517;33;20190;-65
2023/10/26 10:00:33;;;;;;;2.83;0.37;;;;;;;12.58;100.00;93798.66;4309813;33;20221;-65
2023/10/26 10:03:15;;;;;;;0.07;0.07;;;;;;;12.69;100.00;93804.97;4295118;33;20208;-64
2023/10/26 10:05:44;;;;;;;0.30;0.30;;;;;;;12.66;100.00;93805.69;4273032;33;20269;-65
2023/10/26 10:08:10;;;;;;;3.20;0.73;;;;;;;12.69;100.00;93793.56;4308762;33;20201;-64
2023/10/26 10:10:36;;;;;;;0.10;0.10;;;;;;;12.79;100.00;93798.38;4277055;33;20195;-64
2023/10/26 10:13:07;;;;;;;0.17;0.17;;;;;;;12.86;100.00;93795.91;4310912;33;20221;-64
2023/10/26 10:15:39;;;;;;;0.20;0.20;;;;;;;12.87;100.00;93794.78;4303013;33;20194;-64
2023/10/26 10:18:07;;;;;;;0.70;0.67;;;;;;;12.92;100.00;93799.81;4273925;32;20182;-65
2023/10/26 10:20:37;;;;;;;0.30;0.30;;;;;;;12.96;100.00;93814.00;4308551;33;20189;-64
2023/10/26 10:23:04;;;;;;;0.10;0.10;;;;;;;13.03;100.00;93803.53;4283580;33;20193;-64
2023/10/26 10:25:56;;;;;;;0.13;0.13;;;;;;;13.07;100.00;93791.06;4261634;33;20187;-64
2023/10/26 10:28:22;;;;;;;0.20;0.20;;;;;;;13.15;100.00;93804.53;4293255;33;20221;-64
2023/10/26 10:31:00;;;;;;;0.30;0.30;;;;;;;13.16;100.00;93796.22;4303025;32;20200;-64
2023/10/26 10:33:29;;;;;;;0.27;0.27;;;;;;;12.92;100.00;93797.16;4287037;33;20190;-64
2023/10/26 10:36:08;;;;;;;0.50;0.30;;;;;;;12.91;100.00;93784.97;4282547;33;20186;-64
2023/10/26 10:38:37;;;;;;;0.47;0.47;;;;;;;12.80;100.00;93781.31;4321315;32;20197;-64
2023/10/26 10:41:06;;;;;;;0.40;0.40;;;;;;;12.96;100.00;93813.22;4281786;33;20213;-65
2023/10/26 10:43:45;;;;;;;0.33;0.33;;;;;;;12.87;100.00;93800.09;4275075;33;20336;-64
2023/10/26 10:46:19;;;;;;;0.47;0.47;;;;;;;12.79;100.00;93797.63;4293357;33;20178;-65
2023/10/26 10:49:06;;;;;;;0.10;0.10;;;;;;;12.82;100.00;93794.25;4274649;33;20190;-64
2023/10/26 10:51:40;;;;;;;0.17;0.17;;;;;;;12.89;100.00;93789.87;4272368;33;20225;-64
2023/10/26 10:54:15;;;;;;;0.20;0.20;;;;;;;13.00;100.00;93777.59;4288784;33;20241;-64
2023/10/26 10:56:44;;;;;;;0.23;0.23;;;;;;;12.88;100.00;93769.72;4300589;33;20221;-64
2023/10/26 10:59:30;;;;;;;0.87;0.87;;;;;;;12.99;100.00;93769.94;4315495;33;20186;-64
2023/10/26 11:02:10;;;;;;;0.77;0.77;;;;;;;13.03;100.00;93773.47;4281037;33;20320;-64
2023/10/26 11:04:59;;;;;;;0.47;0.47;;;;;;;13.07;100.00;93764.44;4303543;33;20337;-64
2023/10/26 11:07:26;;;;;;;0.40;0.30;;;;;;;13.05;100.00;93763.25;4301226;33;20189;-64
2023/10/26 11:10:04;;;;;;;0.20;0.20;;;;;;;12.85;100.00;93751.78;4286730;32;20225;-64
2023/10/26 11:12:30;;;;;;;0.20;0.20;;;;;;;12.99;100.00;93744.09;4316979;33;20181;-64
2023/10/26 11:14:56;;;;;;;0.10;0.10;;;;;;;13.13;100.00;93742.84;4277982;33;20191;-65
2023/10/26 11:17:24;;;;;;;1.70;0.50;;;;;;;13.17;100.00;93746.41;4318929;33;20289;-65
2023/10/26 11:19:53;;;;;;;0.60;0.30;;;;;;;13.04;100.00;93730.53;4328285;33;20208;-65
2023/10/26 11:22:20;;;;;;;0.00;0.00;;;;;;;13.20;100.00;93743.03;4289197;33;20182;-64
2023/10/26 11:24:46;;;;;;;0.20;0.20;;;;;;;13.36;100.00;93735.78;4311817;33;20178;-65
2023/10/26 11:27:17;;;;;;;0.10;0.10;;;;;;;13.49;100.00;93725.78;4284740;33;20216;-64
2023/10/26 11:30:05;;;;;;;2.03;0.70;;;;;;;13.57;100.00;93733.53;4250251;33;20209;-64
2023/10/26 11:32:34;;;;;;;0.20;0.20;;;;;;;13.70;100.00;93729.63;4306907;33;20188;-65
2023/10/26 11:35:14;;;;;;;0.10;0.10;;;;;;;13.72;100.00;93724.69;4299520;33;20174;-65
2023/10/26 11:37:53;;;;;;;0.50;0.27;;;;;;;13.82;100.00;93720.69;4283968;33;20189;-64